createdAt,value
2024-05-09T00:00:40.763Z,38.42
2024-05-09T00:03:10.435Z,37.60
2024-05-09T00:05:39.207Z,37.50
2024-05-09T00:08:06.994Z,39.58
2024-05-09T00:10:37.544Z,39.45
2024-05-09T00:13:10.443Z,36.22
2024-05-09T00:15:38.285Z,39.15
2024-05-09T00:18:07.880Z,39.85
2024-05-09T00:20:39.459Z,40.08
2024-05-09T00:23:10.539Z,40.08
2024-05-09T00:25:38.652Z,40.00
2024-05-09T00:28:06.461Z,40.28
2024-05-09T00:30:36.226Z,41.33
2024-05-09T00:33:09.628Z,39.00
2024-05-09T00:35:38.513Z,42.40
2024-05-09T00:38:06.235Z,38.65
2024-05-09T00:40:40.898Z,41.55
2024-05-09T00:43:12.631Z,40.40
2024-05-09T00:45:41.220Z,40.13
2024-05-09T00:48:09.878Z,39.40
2024-05-09T00:50:42.000Z,42.25
2024-05-09T00:53:13.455Z,38.25
2024-05-09T00:55:41.692Z,37.75
2024-05-09T00:58:10.641Z,41.45
2024-05-09T01:00:40.340Z,41.58
2024-05-09T01:03:10.966Z,43.80
2024-05-09T01:05:40.600Z,38.78
2024-05-09T01:08:08.909Z,36.67
2024-05-09T01:10:36.932Z,39.00
2024-05-09T01:13:07.730Z,40.97
2024-05-09T01:15:35.850Z,36.85
2024-05-09T01:18:07.437Z,40.75
2024-05-09T01:23:08.439Z,38.78
2024-05-09T01:25:35.960Z,40.65
2024-05-09T01:28:03.253Z,40.33
2024-05-09T01:30:34.997Z,40.28
2024-05-09T01:35:32.431Z,35.75
2024-05-09T01:37:59.942Z,37.90
2024-05-09T01:40:36.366Z,39.42
2024-05-09T01:43:06.635Z,38.00
2024-05-09T01:45:34.114Z,38.00
2024-05-09T01:48:02.238Z,40.35
2024-05-09T01:50:38.047Z,38.05
2024-05-09T01:53:09.186Z,36.35
2024-05-09T01:55:36.724Z,36.88
2024-05-09T01:58:04.024Z,41.17
2024-05-09T02:00:38.699Z,37.20
2024-05-09T02:03:10.205Z,38.75
2024-05-09T02:05:38.591Z,37.88
2024-05-09T02:08:06.507Z,38.40
2024-05-09T02:10:33.963Z,39.03
2024-05-09T02:13:01.416Z,37.05
2024-05-09T02:15:28.697Z,38.25
2024-05-09T02:17:56.348Z,38.65
2024-05-09T02:20:33.050Z,39.10
2024-05-09T02:23:05.064Z,38.78
2024-05-09T02:25:33.162Z,38.80
2024-05-09T02:28:00.583Z,41.15
2024-05-09T02:32:58.539Z,38.50
2024-05-09T02:35:26.849Z,39.53
2024-05-09T02:37:54.253Z,37.17
2024-05-09T02:40:25.809Z,38.60
2024-05-09T02:43:01.326Z,3.95
2024-05-09T02:45:28.656Z,2.47
2024-05-09T02:47:56.127Z,3.25
2024-05-09T02:50:30.266Z,3.00
2024-05-09T02:53:04.596Z,2.10
2024-05-09T02:55:31.866Z,2.17
2024-05-09T02:57:59.254Z,8.75
2024-05-09T03:00:35.077Z,1.55
2024-05-09T03:03:11.428Z,2.17
2024-05-09T03:05:41.128Z,2.83
2024-05-09T03:08:08.889Z,7.22
2024-05-09T03:10:38.403Z,1.85
2024-05-09T03:13:12.763Z,2.67
2024-05-09T03:15:41.319Z,3.40
2024-05-09T03:18:09.606Z,3.80
2024-05-09T03:20:38.082Z,1.77
2024-05-09T03:23:07.854Z,3.40
2024-05-09T03:25:36.121Z,3.33
2024-05-09T03:28:03.657Z,2.47
2024-05-09T03:30:39.707Z,0.60
2024-05-09T03:33:15.266Z,2.10
2024-05-09T03:35:46.483Z,2.20
2024-05-09T03:38:14.191Z,10.60
2024-05-09T03:40:49.046Z,1.88
2024-05-09T03:43:17.501Z,2.20
2024-05-09T03:45:44.802Z,1.90
2024-05-09T03:48:12.912Z,3.85
2024-05-09T03:50:40.563Z,3.58
2024-05-09T03:53:10.362Z,2.80
2024-05-09T03:55:37.768Z,3.95
2024-05-09T03:58:05.278Z,2.63
2024-05-09T04:00:38.043Z,2.08
2024-05-09T04:03:09.716Z,6.28
2024-05-09T04:05:44.067Z,5.10
2024-05-09T04:08:11.982Z,0.80
2024-05-09T04:10:39.436Z,2.15
2024-05-09T04:13:06.803Z,3.45
2024-05-09T04:15:34.217Z,2.03
2024-05-09T04:18:02.339Z,3.70
2024-05-09T04:20:37.586Z,1.02
2024-05-09T04:23:08.915Z,3.72
2024-05-09T04:25:36.822Z,3.35
2024-05-09T04:28:04.345Z,2.38
2024-05-09T04:30:37.989Z,3.40
2024-05-09T04:33:10.470Z,7.28
2024-05-09T04:35:41.947Z,2.92
2024-05-09T04:38:09.617Z,3.50
2024-05-09T04:40:37.789Z,0.88
2024-05-09T04:43:06.510Z,1.73
2024-05-09T04:45:34.260Z,6.25
2024-05-09T04:48:02.298Z,2.53
2024-05-09T04:50:36.589Z,4.45
2024-05-09T04:53:07.485Z,1.33
2024-05-09T04:55:36.243Z,1.35
2024-05-09T04:58:03.654Z,3.65
2024-05-09T05:00:36.500Z,4.63
2024-05-09T05:03:07.570Z,1.75
2024-05-09T05:05:40.282Z,4.72
2024-05-09T05:08:14.920Z,2.97
2024-05-09T05:10:43.037Z,3.22
2024-05-09T05:13:22.646Z,4.13
2024-05-09T05:15:52.472Z,3.83
2024-05-09T05:18:20.088Z,4.93
2024-05-09T05:20:47.941Z,2.10
2024-05-09T05:23:16.884Z,3.58
2024-05-09T05:25:44.480Z,3.30
2024-05-09T05:28:12.019Z,2.08
2024-05-09T05:30:39.711Z,4.05
2024-05-09T05:33:07.708Z,3.78
2024-05-09T05:35:35.227Z,9.93
2024-05-09T05:38:02.918Z,2.38
2024-05-09T05:40:36.518Z,1.75
2024-05-09T05:43:05.916Z,1.15
2024-05-09T05:45:33.250Z,4.65
2024-05-09T05:48:00.843Z,4.00
2024-05-09T05:50:35.418Z,3.17
2024-05-09T05:53:06.189Z,3.55
2024-05-09T05:55:33.660Z,5.38
2024-05-09T05:58:02.046Z,3.88
2024-05-09T06:00:35.539Z,2.38
2024-05-09T06:03:06.398Z,4.90
2024-05-09T06:05:35.204Z,2.47
2024-05-09T06:08:02.575Z,2.45
2024-05-09T06:10:37.552Z,4.95
2024-05-09T06:13:07.725Z,3.95
2024-05-09T06:15:35.136Z,2.65
2024-05-09T06:18:02.601Z,2.90
2024-05-09T06:20:36.246Z,3.22
2024-05-09T06:23:06.684Z,3.22
2024-05-09T06:25:34.724Z,2.92
2024-05-09T06:28:02.200Z,2.55
2024-05-09T06:30:38.009Z,1.80
2024-05-09T06:33:08.820Z,2.78
2024-05-09T06:35:37.274Z,2.22
2024-05-09T06:38:05.159Z,5.50
2024-05-09T06:40:37.492Z,5.38
2024-05-09T06:43:18.243Z,1.63
2024-05-09T06:45:48.230Z,4.47
2024-05-09T06:48:16.268Z,3.00
2024-05-09T06:50:43.780Z,4.40
2024-05-09T06:53:11.431Z,1.90
2024-05-09T06:55:38.752Z,2.08
2024-05-09T06:58:06.953Z,1.55
2024-05-09T07:00:39.335Z,1.35
2024-05-09T07:03:14.280Z,3.50
2024-05-09T07:05:44.090Z,3.17
2024-05-09T07:08:11.539Z,1.30
2024-05-09T07:10:38.903Z,2.00
2024-05-09T07:13:15.795Z,4.65
2024-05-09T07:15:43.808Z,2.70
2024-05-09T07:18:12.454Z,3.20
2024-05-09T07:20:40.948Z,2.25
2024-05-09T07:23:12.550Z,3.20
2024-05-09T07:25:41.119Z,2.85
2024-05-09T07:28:26.385Z,1.80
2024-05-09T07:30:53.656Z,6.40
2024-05-09T07:33:23.161Z,1.70
2024-05-09T07:35:51.683Z,3.10
2024-05-09T07:38:19.158Z,3.92
2024-05-09T07:40:46.860Z,4.00
2024-05-09T07:43:14.755Z,2.08
2024-05-09T07:45:50.861Z,2.28
2024-05-09T07:52:37.277Z,3.85
2024-05-09T07:53:47.220Z,5.93
2024-05-09T07:56:18.924Z,2.28
2024-05-09T07:58:47.674Z,1.23
2024-05-09T08:01:15.147Z,2.40
2024-05-09T08:03:42.704Z,1.50
2024-05-09T08:06:10.066Z,3.50
2024-05-09T08:08:37.320Z,2.28
2024-05-09T08:11:06.321Z,3.78
2024-05-09T08:13:33.706Z,3.75
2024-05-09T08:16:01.124Z,1.77
2024-05-09T08:18:28.738Z,1.73
2024-05-09T08:20:56.280Z,3.97
2024-05-09T08:23:23.910Z,3.47
2024-05-09T08:25:52.834Z,4.10
2024-05-09T08:28:20.144Z,10.35
2024-05-09T08:30:47.673Z,1.23
2024-05-09T08:33:15.534Z,3.80
2024-05-09T08:35:42.978Z,0.95
2024-05-09T08:38:10.400Z,1.98
2024-05-09T08:40:38.427Z,1.85
2024-05-09T08:43:11.498Z,1.33
2024-05-09T08:45:43.568Z,1.58
2024-05-09T08:48:13.526Z,6.60
2024-05-09T08:50:41.800Z,2.13
2024-05-09T08:53:09.550Z,2.70
2024-05-09T08:55:40.726Z,3.38
2024-05-09T08:58:13.498Z,2.70
2024-05-09T09:00:42.550Z,1.48
2024-05-09T09:03:12.057Z,1.23
2024-05-09T09:05:40.705Z,2.58
2024-05-09T09:08:09.021Z,1.13
2024-05-09T09:10:37.332Z,2.85
2024-05-09T09:13:07.173Z,2.08
2024-05-09T09:15:34.675Z,1.20
2024-05-09T09:18:02.197Z,1.85
2024-05-09T09:20:36.404Z,0.70
2024-05-09T09:23:04.883Z,1.20
2024-05-09T09:25:32.353Z,2.92
2024-05-09T09:27:59.861Z,1.35
2024-05-09T09:30:35.383Z,0.90
2024-05-09T09:33:05.953Z,1.45
2024-05-09T09:35:33.631Z,2.40
2024-05-09T09:38:03.074Z,1.33
2024-05-09T09:40:40.639Z,1.65
2024-05-09T09:43:14.955Z,0.82
2024-05-09T09:45:43.978Z,1.65
2024-05-09T09:48:12.204Z,2.28
2024-05-09T09:50:40.822Z,1.40
2024-05-09T09:53:08.181Z,0.85
2024-05-09T09:55:35.689Z,1.63
2024-05-09T09:58:05.860Z,1.23
2024-05-09T10:00:34.682Z,1.85
2024-05-09T10:03:02.392Z,1.02
2024-05-09T10:05:30.716Z,3.40
2024-05-09T10:07:59.196Z,2.13
2024-05-09T10:10:31.896Z,2.67
2024-05-09T10:15:28.190Z,0.57
2024-05-09T10:17:55.673Z,2.10
2024-05-09T10:20:28.028Z,1.08
2024-05-09T10:22:59.508Z,3.75
2024-05-09T10:25:26.801Z,2.40
2024-05-09T10:27:56.956Z,2.30
2024-05-09T10:32:57.280Z,5.72
2024-05-09T10:35:26.648Z,2.80
2024-05-09T10:37:53.967Z,0.98
2024-05-09T10:40:26.563Z,1.48
2024-05-09T10:43:01.161Z,1.13
2024-05-09T10:45:30.035Z,0.70
2024-05-09T10:47:57.909Z,2.15
2024-05-09T10:50:28.934Z,2.40
2024-05-09T10:52:59.408Z,2.20
2024-05-09T10:55:27.490Z,0.63
2024-05-09T10:57:54.890Z,2.85
2024-05-09T11:00:27.823Z,2.08
2024-05-09T11:03:00.963Z,1.65
2024-05-09T11:05:28.467Z,0.82
2024-05-09T11:07:55.915Z,0.88
2024-05-09T11:10:27.876Z,7.15
2024-05-09T11:13:00.988Z,15.90
2024-05-09T11:15:38.519Z,23.30
2024-05-09T11:18:06.148Z,9.38
2024-05-09T11:20:36.905Z,6.45
2024-05-09T11:23:07.478Z,38.55
2024-05-09T11:25:34.831Z,19.75
2024-05-09T11:28:02.236Z,4.97
2024-05-09T11:30:34.542Z,30.40
2024-05-09T11:33:01.920Z,34.55
2024-05-09T11:35:29.367Z,39.08
2024-05-09T11:37:56.672Z,22.08
2024-05-09T11:40:28.092Z,10.38
2024-05-09T11:42:59.768Z,15.05
2024-05-09T11:45:27.027Z,71.97
2024-05-09T11:47:54.573Z,21.15
2024-05-09T11:50:27.333Z,20.73
2024-05-09T11:52:59.755Z,55.45
2024-05-09T11:55:28.400Z,39.20
2024-05-09T11:57:56.208Z,331.98
2024-05-09T12:00:33.028Z,30.77
2024-05-09T12:03:05.304Z,31.38
2024-05-09T12:05:34.145Z,39.97
2024-05-09T12:08:02.268Z,116.47
2024-05-09T12:10:33.826Z,123.22
2024-05-09T12:13:05.536Z,558.55
2024-05-09T12:15:36.675Z,543.88
2024-05-09T12:18:05.348Z,428.23
2024-05-09T12:20:37.551Z,598.92
2024-05-09T12:23:07.867Z,322.67
2024-05-09T12:25:35.675Z,196.25
2024-05-09T12:28:03.033Z,86.25
2024-05-09T12:30:36.679Z,44.20
2024-05-09T12:33:11.342Z,20.77
2024-05-09T12:35:39.208Z,17.90
2024-05-09T12:38:06.559Z,14.43
2024-05-09T12:40:37.116Z,15.40
2024-05-09T12:43:10.158Z,13.38
2024-05-09T12:45:38.906Z,12.15
2024-05-09T12:48:11.146Z,12.60
2024-05-09T12:53:07.776Z,18.38
2024-05-09T12:55:43.918Z,12.52
2024-05-09T12:58:19.220Z,13.10
2024-05-09T13:00:47.289Z,14.05
2024-05-09T13:03:15.336Z,14.45
2024-05-09T13:05:44.653Z,13.90
2024-05-09T13:08:12.930Z,13.38
2024-05-09T13:10:40.338Z,13.80
2024-05-09T13:13:07.877Z,15.55
2024-05-09T13:15:36.826Z,15.63
2024-05-09T13:18:04.510Z,13.38
2024-05-09T13:20:34.592Z,14.65
2024-05-09T13:23:07.836Z,13.77
2024-05-09T13:25:36.084Z,14.00
2024-05-09T13:28:06.999Z,15.68
2024-05-09T13:30:39.923Z,16.60
2024-05-09T13:33:11.258Z,12.70
2024-05-09T13:35:40.762Z,13.77
2024-05-09T13:38:09.344Z,13.65
2024-05-09T13:40:36.876Z,14.05
2024-05-09T13:43:05.286Z,13.23
2024-05-09T13:45:33.359Z,14.35
2024-05-09T13:48:01.973Z,15.13
2024-05-09T13:50:34.600Z,12.95
2024-05-09T13:53:05.788Z,13.95
2024-05-09T13:55:34.162Z,14.48
2024-05-09T13:58:01.920Z,14.77
2024-05-09T14:00:41.963Z,13.88
2024-05-09T14:03:14.814Z,12.05
2024-05-09T14:05:43.068Z,13.35
2024-05-09T14:08:10.608Z,11.90
2024-05-09T14:10:44.003Z,14.20
2024-05-09T14:15:39.218Z,12.75
2024-05-09T14:18:09.490Z,11.68
2024-05-09T14:20:38.864Z,11.82
2024-05-09T14:23:06.180Z,12.88
2024-05-09T14:25:37.915Z,10.77
2024-05-09T14:28:08.240Z,9.70
2024-05-09T14:30:37.861Z,8.38
2024-05-09T14:33:07.363Z,9.95
2024-05-09T14:35:35.734Z,11.05
2024-05-09T14:38:03.053Z,10.02
2024-05-09T14:40:40.445Z,10.90
2024-05-09T14:43:11.749Z,8.18
2024-05-09T14:45:39.066Z,7.72
2024-05-09T14:48:07.337Z,9.93
2024-05-09T14:50:38.171Z,8.95
2024-05-09T14:53:08.545Z,8.80
2024-05-09T14:55:37.707Z,7.22
2024-05-09T14:58:09.473Z,10.45
2024-05-09T15:00:47.804Z,9.43
2024-05-09T15:03:21.804Z,9.60
2024-05-09T15:05:50.191Z,10.10
2024-05-09T15:08:18.776Z,8.43
2024-05-09T15:10:46.883Z,13.18
2024-05-09T15:13:16.562Z,11.23
2024-05-09T15:15:44.936Z,10.10
2024-05-09T15:18:12.648Z,13.93
2024-05-09T15:20:40.693Z,9.98
2024-05-09T15:23:08.207Z,9.85
2024-05-09T15:25:36.715Z,10.85
2024-05-09T15:28:04.934Z,7.15
2024-05-09T15:30:33.998Z,6.88
2024-05-09T15:33:06.545Z,8.30
2024-05-09T15:35:34.813Z,9.90
2024-05-09T15:38:05.267Z,8.32
2024-05-09T15:40:38.977Z,8.48
2024-05-09T15:43:09.743Z,6.65
2024-05-09T15:45:38.740Z,8.63
2024-05-09T15:48:06.832Z,7.47
2024-05-09T15:50:39.163Z,12.30
2024-05-09T15:53:09.950Z,6.55
2024-05-09T15:55:37.901Z,7.85
2024-05-09T15:58:06.188Z,8.30
2024-05-09T16:00:39.001Z,8.93
2024-05-09T16:03:13.908Z,7.85
2024-05-09T16:05:43.739Z,7.00
2024-05-09T16:08:11.428Z,7.90
2024-05-09T16:10:43.429Z,9.52
2024-05-09T16:13:12.298Z,7.28
2024-05-09T16:15:39.907Z,8.02
2024-05-09T16:18:07.546Z,7.80
2024-05-09T16:20:39.970Z,7.07
2024-05-09T16:23:10.028Z,6.78
2024-05-09T16:25:37.883Z,8.73
2024-05-09T16:28:08.973Z,6.75
2024-05-09T16:30:38.292Z,9.23
2024-05-09T16:33:06.229Z,9.98
2024-05-09T16:35:34.854Z,9.00
2024-05-09T16:38:02.597Z,9.40
2024-05-09T16:40:37.003Z,9.10
2024-05-09T16:43:07.745Z,7.95
2024-05-09T16:45:35.638Z,9.07
2024-05-09T16:48:03.289Z,10.15
2024-05-09T16:50:33.824Z,9.32
2024-05-09T16:53:03.253Z,9.75
2024-05-09T16:55:30.854Z,10.00
2024-05-09T16:57:58.745Z,7.85
2024-05-09T17:00:36.185Z,12.10
2024-05-09T17:03:10.039Z,8.48
2024-05-09T17:05:38.455Z,9.85
2024-05-09T17:08:06.445Z,6.72
2024-05-09T17:10:35.316Z,6.95
2024-05-09T17:13:04.617Z,10.98
2024-05-09T17:15:33.696Z,7.18
2024-05-09T17:18:01.795Z,8.32
2024-05-09T17:20:33.900Z,11.02
2024-05-09T17:23:04.579Z,6.70
2024-05-09T17:25:32.604Z,6.03
2024-05-09T17:28:06.433Z,7.95
2024-05-09T17:30:36.978Z,7.65
2024-05-09T17:33:07.090Z,8.48
2024-05-09T17:35:35.398Z,9.38
2024-05-09T17:38:02.731Z,9.98
2024-05-09T17:40:34.936Z,11.27
2024-05-09T17:43:05.272Z,7.80
2024-05-09T17:45:33.392Z,8.05
2024-05-09T17:48:01.706Z,9.38
2024-05-09T17:50:35.509Z,8.88
2024-05-09T17:53:05.170Z,12.05
2024-05-09T17:55:32.888Z,9.00
2024-05-09T17:58:00.591Z,9.15
2024-05-09T18:00:36.546Z,13.02
2024-05-09T18:03:07.722Z,14.65
2024-05-09T18:05:38.644Z,12.73
2024-05-09T18:08:09.259Z,10.20
2024-05-09T18:10:39.290Z,15.20
2024-05-09T18:13:09.049Z,9.90
2024-05-09T18:15:37.062Z,9.70
2024-05-09T18:18:05.138Z,10.32
2024-05-09T18:20:41.425Z,8.68
2024-05-09T18:23:13.514Z,9.07
2024-05-09T18:25:41.472Z,10.38
2024-05-09T18:28:09.078Z,11.77
2024-05-09T18:30:37.450Z,10.00
2024-05-09T18:33:07.676Z,11.15
2024-05-09T18:35:36.243Z,9.65
2024-05-09T18:38:04.757Z,11.07
2024-05-09T18:40:35.790Z,13.50
2024-05-09T18:43:06.856Z,11.30
2024-05-09T18:45:36.845Z,11.50
2024-05-09T18:48:05.598Z,10.43
2024-05-09T18:50:37.618Z,11.52
2024-05-09T18:53:07.730Z,11.77
2024-05-09T18:55:35.227Z,11.93
2024-05-09T18:58:02.875Z,13.55
2024-05-09T19:00:35.846Z,13.07
2024-05-09T19:03:12.805Z,10.18
2024-05-09T19:05:43.072Z,10.23
2024-05-09T19:08:11.601Z,12.02
2024-05-09T19:10:39.736Z,10.65
2024-05-09T19:13:11.662Z,9.75
2024-05-09T19:15:41.293Z,12.88
2024-05-09T19:18:09.565Z,11.18
2024-05-09T19:20:37.638Z,11.77
2024-05-09T19:23:06.673Z,12.68
2024-05-09T19:25:34.641Z,14.27
2024-05-09T19:28:02.103Z,11.95
2024-05-09T19:30:37.882Z,14.40
2024-05-09T19:33:09.287Z,17.05
2024-05-09T19:35:37.156Z,14.95
2024-05-09T19:38:05.219Z,10.38
2024-05-09T19:40:34.274Z,16.08
2024-05-09T19:43:03.380Z,13.60
2024-05-09T19:45:32.742Z,13.48
2024-05-09T19:48:00.731Z,16.02
2024-05-09T19:50:36.966Z,13.55
2024-05-09T19:53:09.878Z,20.27
2024-05-09T19:55:37.429Z,16.48
2024-05-09T19:58:06.970Z,17.23
2024-05-09T20:00:37.036Z,16.42
2024-05-09T20:03:07.303Z,17.60
2024-05-09T20:05:35.422Z,12.77
2024-05-09T20:08:03.080Z,15.15
2024-05-09T20:10:33.262Z,13.68
2024-05-09T20:13:03.266Z,14.02
2024-05-09T20:15:31.349Z,15.38
2024-05-09T20:17:58.977Z,12.95
2024-05-09T20:20:34.998Z,14.98
2024-05-09T20:23:09.220Z,14.85
2024-05-09T20:25:36.746Z,20.98
2024-05-09T20:28:04.272Z,15.65
2024-05-09T20:30:33.430Z,15.43
2024-05-09T20:33:09.610Z,15.90
2024-05-09T20:35:37.571Z,15.15
2024-05-09T20:38:05.219Z,19.77
2024-05-09T20:40:36.485Z,16.58
2024-05-09T20:43:07.253Z,15.85
2024-05-09T20:45:35.211Z,16.15
2024-05-09T20:48:02.867Z,15.02
2024-05-09T20:50:37.487Z,15.55
2024-05-09T20:53:12.903Z,14.98
2024-05-09T20:55:41.283Z,16.48
2024-05-09T20:58:09.108Z,15.05
2024-05-09T21:00:40.534Z,17.17
2024-05-09T21:03:12.441Z,14.85
2024-05-09T21:05:40.703Z,15.75
2024-05-09T21:08:08.898Z,16.27
2024-05-09T21:10:37.301Z,15.25
2024-05-09T21:13:06.113Z,18.98
2024-05-09T21:15:34.439Z,19.08
2024-05-09T21:18:02.019Z,16.73
2024-05-09T21:20:32.640Z,17.60
2024-05-09T21:23:01.443Z,15.48
2024-05-09T21:25:29.256Z,18.23
2024-05-09T21:27:56.653Z,16.85
2024-05-09T21:32:54.426Z,25.10
2024-05-09T21:35:21.748Z,23.52
2024-05-09T21:37:48.985Z,19.23
2024-05-09T21:40:26.637Z,20.50
2024-05-09T21:43:00.485Z,19.48
2024-05-09T21:45:28.003Z,24.52
2024-05-09T21:47:55.543Z,17.60
2024-05-09T21:50:28.752Z,17.20
2024-05-09T21:53:04.013Z,19.38
2024-05-09T21:55:31.265Z,21.40
2024-05-09T21:57:58.576Z,21.27
2024-05-09T22:00:34.241Z,22.08
2024-05-09T22:03:04.836Z,19.42
2024-05-09T22:05:32.760Z,24.88
2024-05-09T22:08:00.208Z,19.38
2024-05-09T22:10:33.724Z,20.58
2024-05-09T22:13:04.170Z,19.55
2024-05-09T22:15:35.244Z,21.88
2024-05-09T22:18:02.870Z,20.15
2024-05-09T22:20:36.733Z,20.00
2024-05-09T22:23:06.290Z,20.15
2024-05-09T22:25:33.874Z,21.55
2024-05-09T22:28:01.998Z,21.67
2024-05-09T22:32:59.929Z,19.73
2024-05-09T22:35:27.329Z,20.58
2024-05-09T22:37:55.226Z,20.10
2024-05-09T22:40:32.157Z,19.85
2024-05-09T22:43:06.398Z,14.80
2024-05-09T22:45:33.948Z,20.00
2024-05-09T22:48:01.517Z,22.65
2024-05-09T22:50:33.188Z,22.08
2024-05-09T22:53:01.165Z,21.08
2024-05-09T22:55:28.740Z,20.27
2024-05-09T22:57:56.370Z,21.13
2024-05-09T23:02:54.005Z,19.80
2024-05-09T23:05:21.413Z,23.15
2024-05-09T23:07:48.784Z,21.35
2024-05-09T23:10:21.455Z,19.90
2024-05-09T23:12:55.591Z,22.17
2024-05-09T23:15:22.999Z,20.90
2024-05-09T23:17:50.461Z,20.20
2024-05-09T23:20:25.937Z,22.05
2024-05-09T23:22:59.640Z,19.70
2024-05-09T23:25:26.941Z,20.58
2024-05-09T23:27:54.284Z,21.83
2024-05-09T23:30:29.366Z,21.00
2024-05-09T23:33:04.603Z,20.00
2024-05-09T23:35:31.987Z,20.70
2024-05-09T23:37:59.281Z,21.98
2024-05-09T23:40:35.049Z,23.38
2024-05-09T23:43:06.585Z,20.27
2024-05-09T23:45:34.038Z,20.90
2024-05-09T23:48:01.648Z,19.73
2024-05-09T23:52:59.215Z,22.40
2024-05-09T23:55:26.495Z,22.10
2024-05-09T23:57:53.825Z,19.85
